sensor_id;sensor_type;location;lat;lon;timestamp;P1;durP1;ratioP1;P2;durP2;ratioP2
43990;SDS011;29654;50.784;20.604;2023-06-10T00:00:27;5.18;;;3.75;;
43990;SDS011;29654;50.784;20.604;2023-06-10T00:05:30;4.30;;;3.90;;
43990;SDS011;29654;50.784;20.604;2023-06-10T00:10:35;5.68;;;5.15;;
43990;SDS011;29654;50.784;20.604;2023-06-10T00:15:40;7.40;;;6.72;;
43990;SDS011;29654;50.784;20.604;2023-06-10T00:20:42;5.18;;;4.78;;
43990;SDS011;29654;50.784;20.604;2023-06-10T00:25:45;6.07;;;3.97;;
43990;SDS011;29654;50.784;20.604;2023-06-10T00:30:50;5.30;;;4.80;;
43990;SDS011;29654;50.784;20.604;2023-06-10T00:35:52;5.45;;;4.95;;
43990;SDS011;29654;50.784;20.604;2023-06-10T00:40:55;6.18;;;4.47;;
43990;SDS011;29654;50.784;20.604;2023-06-10T00:46:00;4.72;;;4.22;;
43990;SDS011;29654;50.784;20.604;2023-06-10T00:51:03;5.57;;;4.32;;
43990;SDS011;29654;50.784;20.604;2023-06-10T00:56:09;4.22;;;3.92;;
43990;SDS011;29654;50.784;20.604;2023-06-10T01:01:13;3.95;;;3.65;;
43990;SDS011;29654;50.784;20.604;2023-06-10T01:06:18;4.57;;;3.45;;
43990;SDS011;29654;50.784;20.604;2023-06-10T01:11:40;5.35;;;3.65;;
43990;SDS011;29654;50.784;20.604;2023-06-10T01:16:50;4.18;;;3.85;;
43990;SDS011;29654;50.784;20.604;2023-06-10T01:21:55;4.47;;;4.07;;
43990;SDS011;29654;50.784;20.604;2023-06-10T01:27:01;3.88;;;3.58;;
43990;SDS011;29654;50.784;20.604;2023-06-10T01:32:15;4.68;;;4.22;;
43990;SDS011;29654;50.784;20.604;2023-06-10T01:37:24;4.93;;;4.30;;
43990;SDS011;29654;50.784;20.604;2023-06-10T01:42:29;4.45;;;4.05;;
43990;SDS011;29654;50.784;20.604;2023-06-10T01:47:32;4.88;;;4.43;;
43990;SDS011;29654;50.784;20.604;2023-06-10T01:52:36;4.28;;;3.95;;
43990;SDS011;29654;50.784;20.604;2023-06-10T01:57:39;4.70;;;4.30;;
43990;SDS011;29654;50.784;20.604;2023-06-10T02:02:42;4.40;;;4.07;;
43990;SDS011;29654;50.784;20.604;2023-06-10T02:07:47;4.63;;;4.07;;
43990;SDS011;29654;50.784;20.604;2023-06-10T02:12:49;4.95;;;4.53;;
43990;SDS011;29654;50.784;20.604;2023-06-10T02:17:52;4.95;;;4.45;;
43990;SDS011;29654;50.784;20.604;2023-06-10T02:22:58;4.07;;;3.67;;
43990;SDS011;29654;50.784;20.604;2023-06-10T02:28:01;4.00;;;3.60;;
43990;SDS011;29654;50.784;20.604;2023-06-10T02:33:04;3.95;;;3.65;;
43990;SDS011;29654;50.784;20.604;2023-06-10T02:38:12;4.25;;;3.80;;
43990;SDS011;29654;50.784;20.604;2023-06-10T02:43:15;3.83;;;3.53;;
43990;SDS011;29654;50.784;20.604;2023-06-10T02:48:18;3.75;;;3.45;;
43990;SDS011;29654;50.784;20.604;2023-06-10T02:53:23;3.78;;;3.47;;
43990;SDS011;29654;50.784;20.604;2023-06-10T02:58:31;3.70;;;3.40;;
43990;SDS011;29654;50.784;20.604;2023-06-10T03:03:35;4.65;;;3.85;;
43990;SDS011;29654;50.784;20.604;2023-06-10T03:08:45;5.05;;;4.07;;
43990;SDS011;29654;50.784;20.604;2023-06-10T03:13:51;4.57;;;4.20;;
43990;SDS011;29654;50.784;20.604;2023-06-10T03:18:56;4.47;;;4.07;;
43990;SDS011;29654;50.784;20.604;2023-06-10T03:24:01;4.13;;;3.72;;
43990;SDS011;29654;50.784;20.604;2023-06-10T03:29:05;4.20;;;3.90;;
43990;SDS011;29654;50.784;20.604;2023-06-10T03:34:08;4.13;;;3.83;;
43990;SDS011;29654;50.784;20.604;2023-06-10T03:39:12;4.82;;;4.43;;
43990;SDS011;29654;50.784;20.604;2023-06-10T03:44:15;4.25;;;3.88;;
43990;SDS011;29654;50.784;20.604;2023-06-10T03:49:19;4.63;;;3.88;;
43990;SDS011;29654;50.784;20.604;2023-06-10T03:54:24;4.30;;;4.00;;
43990;SDS011;29654;50.784;20.604;2023-06-10T03:59:27;4.25;;;3.88;;
43990;SDS011;29654;50.784;20.604;2023-06-10T04:04:30;4.07;;;3.78;;
43990;SDS011;29654;50.784;20.604;2023-06-10T04:09:34;4.07;;;3.78;;
43990;SDS011;29654;50.784;20.604;2023-06-10T04:14:37;3.38;;;3.08;;
43990;SDS011;29654;50.784;20.604;2023-06-10T04:19:43;3.65;;;3.35;;
43990;SDS011;29654;50.784;20.604;2023-06-10T04:24:47;3.53;;;3.33;;
43990;SDS011;29654;50.784;20.604;2023-06-10T04:29:52;3.53;;;3.22;;
43990;SDS011;29654;50.784;20.604;2023-06-10T04:34:56;3.53;;;3.22;;
43990;SDS011;29654;50.784;20.604;2023-06-10T04:40:08;3.25;;;3.00;;
43990;SDS011;29654;50.784;20.604;2023-06-10T04:45:11;3.38;;;3.17;;
43990;SDS011;29654;50.784;20.604;2023-06-10T04:50:14;4.35;;;3.35;;
43990;SDS011;29654;50.784;20.604;2023-06-10T04:55:19;3.72;;;3.42;;
43990;SDS011;29654;50.784;20.604;2023-06-10T05:00:22;3.70;;;3.40;;
43990;SDS011;29654;50.784;20.604;2023-06-10T05:05:24;4.13;;;3.72;;
43990;SDS011;29654;50.784;20.604;2023-06-10T05:10:28;3.55;;;3.33;;
43990;SDS011;29654;50.784;20.604;2023-06-10T05:15:32;3.90;;;3.60;;
43990;SDS011;29654;50.784;20.604;2023-06-10T05:20:34;5.38;;;4.00;;
43990;SDS011;29654;50.784;20.604;2023-06-10T05:25:38;3.90;;;3.60;;
43990;SDS011;29654;50.784;20.604;2023-06-10T05:30:42;3.78;;;3.47;;
43990;SDS011;29654;50.784;20.604;2023-06-10T05:35:44;3.60;;;3.30;;
43990;SDS011;29654;50.784;20.604;2023-06-10T05:40:48;3.75;;;3.45;;
43990;SDS011;29654;50.784;20.604;2023-06-10T05:45:51;4.13;;;3.72;;
43990;SDS011;29654;50.784;20.604;2023-06-10T05:50:54;3.55;;;3.25;;
43990;SDS011;29654;50.784;20.604;2023-06-10T05:55:58;3.88;;;3.42;;
43990;SDS011;29654;50.784;20.604;2023-06-10T06:01:01;5.35;;;3.83;;
43990;SDS011;29654;50.784;20.604;2023-06-10T06:06:04;3.50;;;3.20;;
43990;SDS011;29654;50.784;20.604;2023-06-10T06:11:08;3.80;;;3.50;;
43990;SDS011;29654;50.784;20.604;2023-06-10T06:16:11;3.83;;;3.53;;
43990;SDS011;29654;50.784;20.604;2023-06-10T06:21:14;3.78;;;3.45;;
43990;SDS011;29654;50.784;20.604;2023-06-10T06:26:18;3.90;;;3.60;;
43990;SDS011;29654;50.784;20.604;2023-06-10T06:31:21;3.42;;;3.22;;
43990;SDS011;29654;50.784;20.604;2023-06-10T06:36:23;3.88;;;3.58;;
43990;SDS011;29654;50.784;20.604;2023-06-10T06:41:27;3.88;;;3.58;;
43990;SDS011;29654;50.784;20.604;2023-06-10T06:46:30;4.05;;;3.72;;
43990;SDS011;29654;50.784;20.604;2023-06-10T06:51:33;4.40;;;3.58;;
43990;SDS011;29654;50.784;20.604;2023-06-10T06:56:37;5.03;;;4.00;;
43990;SDS011;29654;50.784;20.604;2023-06-10T07:01:40;4.20;;;3.90;;
43990;SDS011;29654;50.784;20.604;2023-06-10T07:06:43;4.20;;;3.90;;
43990;SDS011;29654;50.784;20.604;2023-06-10T07:11:50;4.35;;;4.05;;
43990;SDS011;29654;50.784;20.604;2023-06-10T07:16:52;4.85;;;4.35;;
43990;SDS011;29654;50.784;20.604;2023-06-10T07:21:55;4.28;;;3.88;;
43990;SDS011;29654;50.784;20.604;2023-06-10T07:26:59;4.38;;;4.03;;
43990;SDS011;29654;50.784;20.604;2023-06-10T07:32:02;3.95;;;3.65;;
43990;SDS011;29654;50.784;20.604;2023-06-10T07:37:05;4.30;;;3.90;;
43990;SDS011;29654;50.784;20.604;2023-06-10T07:42:10;3.50;;;3.22;;
43990;SDS011;29654;50.784;20.604;2023-06-10T07:47:13;4.35;;;3.67;;
43990;SDS011;29654;50.784;20.604;2023-06-10T07:52:16;3.63;;;3.33;;
43990;SDS011;29654;50.784;20.604;2023-06-10T07:57:20;4.18;;;3.83;;
43990;SDS011;29654;50.784;20.604;2023-06-10T08:02:23;4.40;;;4.00;;
43990;SDS011;29654;50.784;20.604;2023-06-10T08:07:25;4.00;;;3.60;;
43990;SDS011;29654;50.784;20.604;2023-06-10T08:12:30;3.63;;;3.35;;
43990;SDS011;29654;50.784;20.604;2023-06-10T08:17:33;4.13;;;3.83;;
43990;SDS011;29654;50.784;20.604;2023-06-10T08:22:36;4.00;;;3.60;;
43990;SDS011;29654;50.784;20.604;2023-06-10T08:27:40;3.63;;;3.33;;
43990;SDS011;29654;50.784;20.604;2023-06-10T08:32:43;3.63;;;3.33;;
43990;SDS011;29654;50.784;20.604;2023-06-10T08:37:46;3.83;;;3.53;;
43990;SDS011;29654;50.784;20.604;2023-06-10T08:42:52;4.03;;;3.72;;
43990;SDS011;29654;50.784;20.604;2023-06-10T08:48:03;3.60;;;3.40;;
43990;SDS011;29654;50.784;20.604;2023-06-10T08:53:08;3.63;;;3.33;;
43990;SDS011;29654;50.784;20.604;2023-06-10T08:58:17;3.28;;;2.97;;
43990;SDS011;29654;50.784;20.604;2023-06-10T09:03:20;3.08;;;2.88;;
43990;SDS011;29654;50.784;20.604;2023-06-10T09:08:25;3.38;;;2.90;;
43990;SDS011;29654;50.784;20.604;2023-06-10T09:13:30;3.40;;;3.10;;
43990;SDS011;29654;50.784;20.604;2023-06-10T09:18:33;4.05;;;3.58;;
43990;SDS011;29654;50.784;20.604;2023-06-10T09:23:36;3.97;;;3.65;;
43990;SDS011;29654;50.784;20.604;2023-06-10T09:28:41;3.67;;;3.38;;
43990;SDS011;29654;50.784;20.604;2023-06-10T09:33:46;4.50;;;4.10;;
43990;SDS011;29654;50.784;20.604;2023-06-10T09:38:49;4.35;;;3.95;;
43990;SDS011;29654;50.784;20.604;2023-06-10T09:43:53;3.65;;;3.35;;
43990;SDS011;29654;50.784;20.604;2023-06-10T09:48:57;3.28;;;3.08;;
43990;SDS011;29654;50.784;20.604;2023-06-10T09:54:02;3.63;;;3.33;;
43990;SDS011;29654;50.784;20.604;2023-06-10T09:59:06;3.83;;;3.53;;
43990;SDS011;29654;50.784;20.604;2023-06-10T10:04:09;4.00;;;3.70;;
43990;SDS011;29654;50.784;20.604;2023-06-10T10:09:11;3.50;;;3.20;;
43990;SDS011;29654;50.784;20.604;2023-06-10T10:14:16;3.92;;;3.63;;
43990;SDS011;29654;50.784;20.604;2023-06-10T10:19:20;3.33;;;3.10;;
43990;SDS011;29654;50.784;20.604;2023-06-10T10:24:31;3.45;;;3.15;;
43990;SDS011;29654;50.784;20.604;2023-06-10T10:29:38;3.67;;;3.28;;
43990;SDS011;29654;50.784;20.604;2023-06-10T10:34:43;3.88;;;3.58;;
43990;SDS011;29654;50.784;20.604;2023-06-10T10:39:52;4.07;;;3.78;;
43990;SDS011;29654;50.784;20.604;2023-06-10T10:44:57;3.38;;;3.17;;
43990;SDS011;29654;50.784;20.604;2023-06-10T10:50:01;3.88;;;3.63;;
43990;SDS011;29654;50.784;20.604;2023-06-10T10:55:15;3.45;;;3.25;;
43990;SDS011;29654;50.784;20.604;2023-06-10T11:00:25;4.15;;;3.85;;
43990;SDS011;29654;50.784;20.604;2023-06-10T11:05:37;4.13;;;3.83;;
43990;SDS011;29654;50.784;20.604;2023-06-10T11:10:50;4.13;;;3.83;;
43990;SDS011;29654;50.784;20.604;2023-06-10T11:15:57;3.80;;;3.50;;
43990;SDS011;29654;50.784;20.604;2023-06-10T11:21:00;3.75;;;3.55;;
43990;SDS011;29654;50.784;20.604;2023-06-10T11:26:12;3.88;;;3.58;;
43990;SDS011;29654;50.784;20.604;2023-06-10T11:31:28;3.70;;;3.40;;
43990;SDS011;29654;50.784;20.604;2023-06-10T11:36:33;4.15;;;3.85;;
43990;SDS011;29654;50.784;20.604;2023-06-10T11:41:40;3.30;;;3.10;;
43990;SDS011;29654;50.784;20.604;2023-06-10T11:46:45;4.10;;;3.80;;
43990;SDS011;29654;50.784;20.604;2023-06-10T11:51:50;3.67;;;3.45;;
43990;SDS011;29654;50.784;20.604;2023-06-10T11:56:57;3.45;;;3.22;;
43990;SDS011;29654;50.784;20.604;2023-06-10T12:02:02;3.65;;;3.38;;
43990;SDS011;29654;50.784;20.604;2023-06-10T12:07:05;3.88;;;3.45;;
43990;SDS011;29654;50.784;20.604;2023-06-10T12:12:08;2.65;;;2.45;;
43990;SDS011;29654;50.784;20.604;2023-06-10T12:17:14;2.40;;;2.20;;
43990;SDS011;29654;50.784;20.604;2023-06-10T12:22:16;2.67;;;2.55;;
43990;SDS011;29654;50.784;20.604;2023-06-10T12:27:20;2.22;;;2.10;;
43990;SDS011;29654;50.784;20.604;2023-06-10T12:32:34;2.20;;;2.10;;
43990;SDS011;29654;50.784;20.604;2023-06-10T12:37:38;2.55;;;2.35;;
43990;SDS011;29654;50.784;20.604;2023-06-10T12:42:41;2.30;;;2.20;;
43990;SDS011;29654;50.784;20.604;2023-06-10T12:47:46;2.95;;;2.75;;
43990;SDS011;29654;50.784;20.604;2023-06-10T12:52:49;2.20;;;1.83;;
43990;SDS011;29654;50.784;20.604;2023-06-10T12:57:52;2.53;;;2.33;;
43990;SDS011;29654;50.784;20.604;2023-06-10T13:02:56;2.80;;;2.47;;
43990;SDS011;29654;50.784;20.604;2023-06-10T13:08:02;2.75;;;2.53;;
43990;SDS011;29654;50.784;20.604;2023-06-10T13:13:05;2.47;;;2.28;;
43990;SDS011;29654;50.784;20.604;2023-06-10T13:18:11;2.25;;;2.10;;
43990;SDS011;29654;50.784;20.604;2023-06-10T13:23:13;2.10;;;2.00;;
43990;SDS011;29654;50.784;20.604;2023-06-10T13:28:16;1.80;;;1.70;;
43990;SDS011;29654;50.784;20.604;2023-06-10T13:33:20;2.00;;;1.90;;
43990;SDS011;29654;50.784;20.604;2023-06-10T13:38:23;3.15;;;1.85;;
43990;SDS011;29654;50.784;20.604;2023-06-10T13:43:26;1.88;;;1.75;;
43990;SDS011;29654;50.784;20.604;2023-06-10T13:48:30;2.15;;;1.95;;
43990;SDS011;29654;50.784;20.604;2023-06-10T13:53:33;1.80;;;1.70;;
43990;SDS011;29654;50.784;20.604;2023-06-10T13:58:36;2.08;;;1.98;;
43990;SDS011;29654;50.784;20.604;2023-06-10T14:03:42;2.08;;;1.88;;
43990;SDS011;29654;50.784;20.604;2023-06-10T14:08:44;2.72;;;2.30;;
43990;SDS011;29654;50.784;20.604;2023-06-10T14:13:47;1.95;;;1.85;;
43990;SDS011;29654;50.784;20.604;2023-06-10T14:18:51;1.98;;;1.88;;
43990;SDS011;29654;50.784;20.604;2023-06-10T14:23:54;1.88;;;1.77;;
43990;SDS011;29654;50.784;20.604;2023-06-10T14:28:56;2.15;;;2.05;;
43990;SDS011;29654;50.784;20.604;2023-06-10T14:34:00;2.03;;;1.92;;
43990;SDS011;29654;50.784;20.604;2023-06-10T14:39:03;2.10;;;2.00;;
43990;SDS011;29654;50.784;20.604;2023-06-10T14:44:06;2.90;;;2.47;;
43990;SDS011;29654;50.784;20.604;2023-06-10T14:49:10;3.15;;;2.28;;
43990;SDS011;29654;50.784;20.604;2023-06-10T14:54:13;2.38;;;2.17;;
43990;SDS011;29654;50.784;20.604;2023-06-10T14:59:15;2.30;;;2.10;;
43990;SDS011;29654;50.784;20.604;2023-06-10T15:04:19;2.38;;;2.25;;
43990;SDS011;29654;50.784;20.604;2023-06-10T15:09:22;2.40;;;2.20;;
43990;SDS011;29654;50.784;20.604;2023-06-10T15:14:24;2.00;;;1.88;;
43990;SDS011;29654;50.784;20.604;2023-06-10T15:19:28;2.25;;;2.10;;
43990;SDS011;29654;50.784;20.604;2023-06-10T15:24:31;1.92;;;1.83;;
43990;SDS011;29654;50.784;20.604;2023-06-10T15:29:34;1.98;;;1.70;;
43990;SDS011;29654;50.784;20.604;2023-06-10T15:34:38;2.08;;;1.88;;
43990;SDS011;29654;50.784;20.604;2023-06-10T15:39:40;2.30;;;2.10;;
43990;SDS011;29654;50.784;20.604;2023-06-10T15:44:43;1.92;;;1.83;;
43990;SDS011;29654;50.784;20.604;2023-06-10T15:49:47;2.47;;;2.28;;
43990;SDS011;29654;50.784;20.604;2023-06-10T15:54:50;2.05;;;1.95;;
43990;SDS011;29654;50.784;20.604;2023-06-10T15:59:53;2.08;;;1.88;;
43990;SDS011;29654;50.784;20.604;2023-06-10T16:04:57;4.68;;;3.53;;
43990;SDS011;29654;50.784;20.604;2023-06-10T16:10:00;3.35;;;2.20;;
43990;SDS011;29654;50.784;20.604;2023-06-10T16:15:03;2.30;;;2.10;;
43990;SDS011;29654;50.784;20.604;2023-06-10T16:20:09;2.63;;;2.30;;
43990;SDS011;29654;50.784;20.604;2023-06-10T16:25:12;2.50;;;2.30;;
43990;SDS011;29654;50.784;20.604;2023-06-10T16:30:15;2.50;;;2.30;;
43990;SDS011;29654;50.784;20.604;2023-06-10T16:35:19;2.97;;;2.78;;
43990;SDS011;29654;50.784;20.604;2023-06-10T16:40:22;3.10;;;2.80;;
43990;SDS011;29654;50.784;20.604;2023-06-10T16:45:25;2.83;;;2.63;;
43990;SDS011;29654;50.784;20.604;2023-06-10T16:50:29;3.53;;;3.10;;
43990;SDS011;29654;50.784;20.604;2023-06-10T16:55:32;3.67;;;3.17;;
43990;SDS011;29654;50.784;20.604;2023-06-10T17:00:34;3.35;;;3.05;;
43990;SDS011;29654;50.784;20.604;2023-06-10T17:05:39;3.58;;;3.17;;
43990;SDS011;29654;50.784;20.604;2023-06-10T17:10:41;4.05;;;3.75;;
43990;SDS011;29654;50.784;20.604;2023-06-10T17:15:44;3.45;;;3.20;;
43990;SDS011;29654;50.784;20.604;2023-06-10T17:20:48;5.38;;;3.95;;
43990;SDS011;29654;50.784;20.604;2023-06-10T17:25:51;4.43;;;4.10;;
43990;SDS011;29654;50.784;20.604;2023-06-10T17:30:54;4.10;;;3.80;;
43990;SDS011;29654;50.784;20.604;2023-06-10T17:35:58;4.22;;;3.83;;
43990;SDS011;29654;50.784;20.604;2023-06-10T17:41:01;4.40;;;4.07;;
43990;SDS011;29654;50.784;20.604;2023-06-10T17:46:03;4.15;;;3.75;;
43990;SDS011;29654;50.784;20.604;2023-06-10T17:51:07;4.85;;;4.30;;
43990;SDS011;29654;50.784;20.604;2023-06-10T17:56:11;4.15;;;3.75;;
43990;SDS011;29654;50.784;20.604;2023-06-10T18:01:13;3.85;;;3.55;;
43990;SDS011;29654;50.784;20.604;2023-06-10T18:06:17;4.22;;;3.90;;
43990;SDS011;29654;50.784;20.604;2023-06-10T18:11:20;4.18;;;3.88;;
43990;SDS011;29654;50.784;20.604;2023-06-10T18:16:22;4.22;;;3.92;;
43990;SDS011;29654;50.784;20.604;2023-06-10T18:21:28;4.55;;;4.15;;
43990;SDS011;29654;50.784;20.604;2023-06-10T18:26:31;4.90;;;4.47;;
43990;SDS011;29654;50.784;20.604;2023-06-10T18:31:33;4.38;;;4.07;;
43990;SDS011;29654;50.784;20.604;2023-06-10T18:36:39;4.28;;;3.88;;
43990;SDS011;29654;50.784;20.604;2023-06-10T18:41:42;4.32;;;3.75;;
43990;SDS011;29654;50.784;20.604;2023-06-10T18:46:45;4.55;;;4.15;;
43990;SDS011;29654;50.784;20.604;2023-06-10T18:51:49;4.57;;;4.18;;
43990;SDS011;29654;50.784;20.604;2023-06-10T18:56:51;5.00;;;4.47;;
43990;SDS011;29654;50.784;20.604;2023-06-10T19:01:55;5.25;;;4.85;;
43990;SDS011;29654;50.784;20.604;2023-06-10T19:06:59;5.65;;;5.13;;
43990;SDS011;29654;50.784;20.604;2023-06-10T19:12:02;5.15;;;4.75;;
43990;SDS011;29654;50.784;20.604;2023-06-10T19:17:07;4.88;;;4.47;;
43990;SDS011;29654;50.784;20.604;2023-06-10T19:22:12;5.22;;;4.72;;
43990;SDS011;29654;50.784;20.604;2023-06-10T19:27:14;5.47;;;4.88;;
43990;SDS011;29654;50.784;20.604;2023-06-10T19:32:17;5.28;;;4.88;;
43990;SDS011;29654;50.784;20.604;2023-06-10T19:37:21;6.20;;;5.43;;
43990;SDS011;29654;50.784;20.604;2023-06-10T19:42:24;6.38;;;5.78;;
43990;SDS011;29654;50.784;20.604;2023-06-10T19:47:27;8.70;;;7.35;;
43990;SDS011;29654;50.784;20.604;2023-06-10T19:52:31;9.50;;;8.50;;
43990;SDS011;29654;50.784;20.604;2023-06-10T19:57:34;8.65;;;6.93;;
43990;SDS011;29654;50.784;20.604;2023-06-10T20:02:37;7.88;;;6.32;;
43990;SDS011;29654;50.784;20.604;2023-06-10T20:07:42;6.82;;;6.07;;
43990;SDS011;29654;50.784;20.604;2023-06-10T20:12:44;6.07;;;5.47;;
43990;SDS011;29654;50.784;20.604;2023-06-10T20:17:47;6.13;;;5.53;;
43990;SDS011;29654;50.784;20.604;2023-06-10T20:22:53;6.00;;;5.45;;
43990;SDS011;29654;50.784;20.604;2023-06-10T20:27:56;6.15;;;5.55;;
43990;SDS011;29654;50.784;20.604;2023-06-10T20:32:58;5.32;;;4.90;;
43990;SDS011;29654;50.784;20.604;2023-06-10T20:38:02;5.18;;;4.65;;
43990;SDS011;29654;50.784;20.604;2023-06-10T20:43:05;5.20;;;4.80;;
43990;SDS011;29654;50.784;20.604;2023-06-10T20:48:08;5.32;;;4.82;;
43990;SDS011;29654;50.784;20.604;2023-06-10T20:53:12;5.63;;;5.03;;
43990;SDS011;29654;50.784;20.604;2023-06-10T20:58:15;5.82;;;5.25;;
43990;SDS011;29654;50.784;20.604;2023-06-10T21:03:18;5.47;;;5.03;;
43990;SDS011;29654;50.784;20.604;2023-06-10T21:08:22;4.97;;;4.57;;
43990;SDS011;29654;50.784;20.604;2023-06-10T21:13:24;5.90;;;5.30;;
43990;SDS011;29654;50.784;20.604;2023-06-10T21:18:27;5.80;;;5.07;;
43990;SDS011;29654;50.784;20.604;2023-06-10T21:23:33;5.82;;;5.35;;
43990;SDS011;29654;50.784;20.604;2023-06-10T21:28:35;6.78;;;5.55;;
43990;SDS011;29654;50.784;20.604;2023-06-10T21:33:38;6.10;;;5.50;;
43990;SDS011;29654;50.784;20.604;2023-06-10T21:38:42;6.82;;;6.20;;
43990;SDS011;29654;50.784;20.604;2023-06-10T21:43:45;6.32;;;5.72;;
43990;SDS011;29654;50.784;20.604;2023-06-10T21:48:47;6.35;;;5.75;;
43990;SDS011;29654;50.784;20.604;2023-06-10T21:53:51;6.32;;;5.70;;
43990;SDS011;29654;50.784;20.604;2023-06-10T21:58:54;5.38;;;4.88;;
43990;SDS011;29654;50.784;20.604;2023-06-10T22:03:57;4.78;;;4.45;;
43990;SDS011;29654;50.784;20.604;2023-06-10T22:09:01;5.20;;;4.80;;
43990;SDS011;29654;50.784;20.604;2023-06-10T22:14:04;5.43;;;4.97;;
43990;SDS011;29654;50.784;20.604;2023-06-10T22:19:07;5.30;;;4.85;;
43990;SDS011;29654;50.784;20.604;2023-06-10T22:24:11;5.90;;;5.32;;
43990;SDS011;29654;50.784;20.604;2023-06-10T22:29:14;6.07;;;5.57;;
43990;SDS011;29654;50.784;20.604;2023-06-10T22:34:16;5.75;;;5.25;;
43990;SDS011;29654;50.784;20.604;2023-06-10T22:39:20;6.80;;;6.20;;
43990;SDS011;29654;50.784;20.604;2023-06-10T22:44:23;7.32;;;6.72;;
43990;SDS011;29654;50.784;20.604;2023-06-10T22:49:26;6.47;;;5.88;;
43990;SDS011;29654;50.784;20.604;2023-06-10T22:54:30;7.07;;;6.47;;
43990;SDS011;29654;50.784;20.604;2023-06-10T22:59:33;6.53;;;6.03;;
43990;SDS011;29654;50.784;20.604;2023-06-10T23:04:35;6.68;;;6.18;;
43990;SDS011;29654;50.784;20.604;2023-06-10T23:09:39;6.60;;;6.13;;
43990;SDS011;29654;50.784;20.604;2023-06-10T23:14:42;6.07;;;5.53;;
43990;SDS011;29654;50.784;20.604;2023-06-10T23:19:45;6.43;;;5.85;;
43990;SDS011;29654;50.784;20.604;2023-06-10T23:24:50;6.35;;;5.85;;
43990;SDS011;29654;50.784;20.604;2023-06-10T23:29:56;7.15;;;6.55;;
43990;SDS011;29654;50.784;20.604;2023-06-10T23:34:59;6.95;;;6.35;;
43990;SDS011;29654;50.784;20.604;2023-06-10T23:40:04;7.40;;;6.88;;
43990;SDS011;29654;50.784;20.604;2023-06-10T23:45:09;7.25;;;6.72;;
43990;SDS011;29654;50.784;20.604;2023-06-10T23:50:13;6.82;;;6.22;;
43990;SDS011;29654;50.784;20.604;2023-06-10T23:55:17;7.90;;;7.25;;
